sensor_id;sensor_type;location;lat;lon;timestamp;P1;durP1;ratioP1;P2;durP2;ratioP2
4921;SDS011;16625;53.624;10.106;2022-08-03T00:00:15;6.20;;;5.20;;
4921;SDS011;16625;53.624;10.106;2022-08-03T00:02:42;7.90;;;5.10;;
4921;SDS011;16625;53.624;10.106;2022-08-03T00:05:09;6.50;;;5.27;;
4921;SDS011;16625;53.624;10.106;2022-08-03T00:07:38;5.00;;;4.50;;
4921;SDS011;16625;53.624;10.106;2022-08-03T00:10:05;6.70;;;5.17;;
4921;SDS011;16625;53.624;10.106;2022-08-03T00:12:32;8.93;;;5.43;;
4921;SDS011;16625;53.624;10.106;2022-08-03T00:15:00;9.07;;;5.03;;
4921;SDS011;16625;53.624;10.106;2022-08-03T00:17:28;8.90;;;5.60;;
4921;SDS011;16625;53.624;10.106;2022-08-03T00:19:55;9.07;;;5.40;;
4921;SDS011;16625;53.624;10.106;2022-08-03T00:22:22;8.47;;;5.70;;
4921;SDS011;16625;53.624;10.106;2022-08-03T00:24:49;7.27;;;5.40;;
4921;SDS011;16625;53.624;10.106;2022-08-03T00:27:16;10.17;;;6.00;;
4921;SDS011;16625;53.624;10.106;2022-08-03T00:29:43;5.33;;;4.83;;
4921;SDS011;16625;53.624;10.106;2022-08-03T00:32:10;7.60;;;5.10;;
4921;SDS011;16625;53.624;10.106;2022-08-03T00:34:39;6.10;;;5.07;;
4921;SDS011;16625;53.624;10.106;2022-08-03T00:37:06;6.40;;;5.20;;
4921;SDS011;16625;53.624;10.106;2022-08-03T00:39:33;6.50;;;4.80;;
4921;SDS011;16625;53.624;10.106;2022-08-03T00:42:00;6.30;;;5.40;;
4921;SDS011;16625;53.624;10.106;2022-08-03T00:44:28;6.90;;;5.50;;
4921;SDS011;16625;53.624;10.106;2022-08-03T00:46:55;6.30;;;4.90;;
4921;SDS011;16625;53.624;10.106;2022-08-03T00:49:22;7.00;;;4.93;;
4921;SDS011;16625;53.624;10.106;2022-08-03T00:51:51;6.50;;;5.50;;
4921;SDS011;16625;53.624;10.106;2022-08-03T00:54:19;9.33;;;5.27;;
4921;SDS011;16625;53.624;10.106;2022-08-03T00:56:48;5.63;;;4.80;;
4921;SDS011;16625;53.624;10.106;2022-08-03T00:59:16;9.73;;;5.73;;
4921;SDS011;16625;53.624;10.106;2022-08-03T01:01:44;10.37;;;6.40;;
4921;SDS011;16625;53.624;10.106;2022-08-03T01:04:11;7.40;;;5.70;;
4921;SDS011;16625;53.624;10.106;2022-08-03T01:06:40;8.17;;;6.07;;
4921;SDS011;16625;53.624;10.106;2022-08-03T01:09:15;10.10;;;5.50;;
4921;SDS011;16625;53.624;10.106;2022-08-03T01:11:48;8.87;;;5.53;;
4921;SDS011;16625;53.624;10.106;2022-08-03T01:14:19;6.63;;;5.80;;
4921;SDS011;16625;53.624;10.106;2022-08-03T01:16:51;8.23;;;6.10;;
4921;SDS011;16625;53.624;10.106;2022-08-03T01:19:30;17.97;;;5.53;;
4921;SDS011;16625;53.624;10.106;2022-08-03T01:22:10;7.33;;;6.00;;
4921;SDS011;16625;53.624;10.106;2022-08-03T01:24:59;7.27;;;5.70;;
4921;SDS011;16625;53.624;10.106;2022-08-03T01:27:36;6.07;;;5.13;;
4921;SDS011;16625;53.624;10.106;2022-08-03T01:30:14;7.13;;;6.10;;
4921;SDS011;16625;53.624;10.106;2022-08-03T01:32:47;9.80;;;6.33;;
4921;SDS011;16625;53.624;10.106;2022-08-03T01:35:21;8.47;;;6.57;;
4921;SDS011;16625;53.624;10.106;2022-08-03T01:37:55;9.13;;;5.73;;
4921;SDS011;16625;53.624;10.106;2022-08-03T01:40:26;8.30;;;6.40;;
4921;SDS011;16625;53.624;10.106;2022-08-03T01:42:58;8.60;;;6.60;;
4921;SDS011;16625;53.624;10.106;2022-08-03T01:45:33;7.20;;;6.17;;
4921;SDS011;16625;53.624;10.106;2022-08-03T01:48:03;11.50;;;6.50;;
4921;SDS011;16625;53.624;10.106;2022-08-03T01:50:33;8.90;;;5.30;;
4921;SDS011;16625;53.624;10.106;2022-08-03T01:53:01;7.93;;;5.60;;
4921;SDS011;16625;53.624;10.106;2022-08-03T01:55:28;6.40;;;5.67;;
4921;SDS011;16625;53.624;10.106;2022-08-03T01:57:58;7.03;;;5.53;;
4921;SDS011;16625;53.624;10.106;2022-08-03T02:00:28;16.70;;;6.17;;
4921;SDS011;16625;53.624;10.106;2022-08-03T02:02:57;7.13;;;6.10;;
4921;SDS011;16625;53.624;10.106;2022-08-03T02:05:24;8.13;;;5.83;;
4921;SDS011;16625;53.624;10.106;2022-08-03T02:07:53;10.33;;;5.93;;
4921;SDS011;16625;53.624;10.106;2022-08-03T02:10:21;7.50;;;5.87;;
4921;SDS011;16625;53.624;10.106;2022-08-03T02:12:49;12.93;;;6.10;;
4921;SDS011;16625;53.624;10.106;2022-08-03T02:15:17;8.50;;;6.03;;
4921;SDS011;16625;53.624;10.106;2022-08-03T02:17:47;9.97;;;6.90;;
4921;SDS011;16625;53.624;10.106;2022-08-03T02:20:15;10.10;;;5.87;;
4921;SDS011;16625;53.624;10.106;2022-08-03T02:22:43;7.77;;;6.63;;
4921;SDS011;16625;53.624;10.106;2022-08-03T02:25:12;10.53;;;6.57;;
4921;SDS011;16625;53.624;10.106;2022-08-03T02:27:42;8.30;;;6.57;;
4921;SDS011;16625;53.624;10.106;2022-08-03T02:30:16;7.13;;;5.67;;
4921;SDS011;16625;53.624;10.106;2022-08-03T02:32:46;10.93;;;6.60;;
4921;SDS011;16625;53.624;10.106;2022-08-03T02:35:20;8.33;;;6.30;;
4921;SDS011;16625;53.624;10.106;2022-08-03T02:37:51;7.23;;;6.53;;
4921;SDS011;16625;53.624;10.106;2022-08-03T02:40:21;9.77;;;5.70;;
4921;SDS011;16625;53.624;10.106;2022-08-03T02:42:50;7.30;;;6.50;;
4921;SDS011;16625;53.624;10.106;2022-08-03T02:45:20;7.70;;;5.33;;
4921;SDS011;16625;53.624;10.106;2022-08-03T02:47:54;7.10;;;5.60;;
4921;SDS011;16625;53.624;10.106;2022-08-03T02:50:25;8.47;;;6.97;;
4921;SDS011;16625;53.624;10.106;2022-08-03T02:52:54;23.43;;;6.20;;
4921;SDS011;16625;53.624;10.106;2022-08-03T02:55:23;9.93;;;6.40;;
4921;SDS011;16625;53.624;10.106;2022-08-03T02:57:52;7.83;;;6.90;;
4921;SDS011;16625;53.624;10.106;2022-08-03T03:00:20;6.03;;;5.40;;
4921;SDS011;16625;53.624;10.106;2022-08-03T03:02:49;9.53;;;6.90;;
4921;SDS011;16625;53.624;10.106;2022-08-03T03:05:18;8.13;;;7.07;;
4921;SDS011;16625;53.624;10.106;2022-08-03T03:07:48;7.13;;;6.40;;
4921;SDS011;16625;53.624;10.106;2022-08-03T03:10:15;6.27;;;5.70;;
4921;SDS011;16625;53.624;10.106;2022-08-03T03:12:42;7.80;;;6.10;;
4921;SDS011;16625;53.624;10.106;2022-08-03T09:59:43;6.30;;;2.70;;
4921;SDS011;16625;53.624;10.106;2022-08-03T10:02:18;4.13;;;2.63;;
4921;SDS011;16625;53.624;10.106;2022-08-03T10:04:46;7.47;;;2.72;;
4921;SDS011;16625;53.624;10.106;2022-08-03T10:07:15;6.90;;;3.40;;
4921;SDS011;16625;53.624;10.106;2022-08-03T10:09:44;8.07;;;3.08;;
4921;SDS011;16625;53.624;10.106;2022-08-03T10:12:20;8.30;;;2.63;;
4921;SDS011;16625;53.624;10.106;2022-08-03T10:14:48;9.90;;;2.75;;
4921;SDS011;16625;53.624;10.106;2022-08-03T10:17:16;8.68;;;3.00;;
4921;SDS011;16625;53.624;10.106;2022-08-03T10:19:43;8.13;;;3.10;;
4921;SDS011;16625;53.624;10.106;2022-08-03T10:22:11;9.13;;;2.65;;
4921;SDS011;16625;53.624;10.106;2022-08-03T10:24:43;4.82;;;2.85;;
4921;SDS011;16625;53.624;10.106;2022-08-03T10:27:14;9.48;;;2.95;;
4921;SDS011;16625;53.624;10.106;2022-08-03T10:29:44;4.53;;;2.40;;
4921;SDS011;16625;53.624;10.106;2022-08-03T10:32:17;7.75;;;2.72;;
4921;SDS011;16625;53.624;10.106;2022-08-03T10:34:46;6.90;;;2.90;;
4921;SDS011;16625;53.624;10.106;2022-08-03T10:37:17;9.63;;;3.20;;
4921;SDS011;16625;53.624;10.106;2022-08-03T10:39:46;6.70;;;2.40;;
4921;SDS011;16625;53.624;10.106;2022-08-03T10:42:21;9.25;;;2.75;;
4921;SDS011;16625;53.624;10.106;2022-08-03T10:44:55;3.83;;;2.22;;
4921;SDS011;16625;53.624;10.106;2022-08-03T10:47:29;6.88;;;2.90;;
4921;SDS011;16625;53.624;10.106;2022-08-03T10:49:57;5.53;;;2.55;;
4921;SDS011;16625;53.624;10.106;2022-08-03T10:52:24;6.22;;;2.20;;
4921;SDS011;16625;53.624;10.106;2022-08-03T10:54:51;6.22;;;2.85;;
4921;SDS011;16625;53.624;10.106;2022-08-03T10:57:43;6.72;;;2.42;;
4921;SDS011;16625;53.624;10.106;2022-08-03T11:00:13;8.90;;;2.55;;
4921;SDS011;16625;53.624;10.106;2022-08-03T11:05:42;3.83;;;2.30;;
4921;SDS011;16625;53.624;10.106;2022-08-03T11:08:17;4.88;;;2.50;;
4921;SDS011;16625;53.624;10.106;2022-08-03T11:10:55;9.73;;;2.72;;
4921;SDS011;16625;53.624;10.106;2022-08-03T11:13:24;8.50;;;2.47;;
4921;SDS011;16625;53.624;10.106;2022-08-03T11:15:57;9.95;;;2.55;;
4921;SDS011;16625;53.624;10.106;2022-08-03T11:18:27;6.72;;;2.78;;
4921;SDS011;16625;53.624;10.106;2022-08-03T11:20:55;5.70;;;2.33;;
4921;SDS011;16625;53.624;10.106;2022-08-03T11:23:39;7.13;;;2.65;;
4921;SDS011;16625;53.624;10.106;2022-08-03T11:26:08;3.47;;;1.90;;
4921;SDS011;16625;53.624;10.106;2022-08-03T11:28:40;7.93;;;2.60;;
4921;SDS011;16625;53.624;10.106;2022-08-03T11:34:23;15.43;;;2.95;;
4921;SDS011;16625;53.624;10.106;2022-08-03T11:39:52;4.32;;;2.03;;
4921;SDS011;16625;53.624;10.106;2022-08-03T11:42:39;10.07;;;2.70;;
4921;SDS011;16625;53.624;10.106;2022-08-03T11:45:11;4.30;;;2.22;;
4921;SDS011;16625;53.624;10.106;2022-08-03T11:47:39;8.07;;;2.60;;
4921;SDS011;16625;53.624;10.106;2022-08-03T11:50:08;10.32;;;2.55;;
4921;SDS011;16625;53.624;10.106;2022-08-03T11:52:38;4.63;;;2.50;;
4921;SDS011;16625;53.624;10.106;2022-08-03T11:55:14;8.30;;;2.78;;
4921;SDS011;16625;53.624;10.106;2022-08-03T11:57:44;6.03;;;2.63;;
4921;SDS011;16625;53.624;10.106;2022-08-03T12:00:19;10.45;;;2.55;;
4921;SDS011;16625;53.624;10.106;2022-08-03T12:05:43;4.38;;;2.70;;
4921;SDS011;16625;53.624;10.106;2022-08-03T12:08:12;5.85;;;2.50;;
4921;SDS011;16625;53.624;10.106;2022-08-03T12:10:45;4.50;;;2.55;;
4921;SDS011;16625;53.624;10.106;2022-08-03T12:13:13;8.18;;;2.50;;
4921;SDS011;16625;53.624;10.106;2022-08-03T12:15:41;7.55;;;2.42;;
4921;SDS011;16625;53.624;10.106;2022-08-03T12:18:12;5.63;;;2.42;;
4921;SDS011;16625;53.624;10.106;2022-08-03T12:20:41;8.70;;;2.55;;
4921;SDS011;16625;53.624;10.106;2022-08-03T12:23:10;4.93;;;2.17;;
4921;SDS011;16625;53.624;10.106;2022-08-03T12:25:39;12.05;;;2.72;;
4921;SDS011;16625;53.624;10.106;2022-08-03T12:28:09;12.13;;;3.47;;
4921;SDS011;16625;53.624;10.106;2022-08-03T12:30:40;8.27;;;2.67;;
4921;SDS011;16625;53.624;10.106;2022-08-03T12:33:15;6.70;;;2.53;;
4921;SDS011;16625;53.624;10.106;2022-08-03T12:35:46;4.95;;;2.28;;
4921;SDS011;16625;53.624;10.106;2022-08-03T12:38:19;4.78;;;2.13;;
4921;SDS011;16625;53.624;10.106;2022-08-03T12:44:09;8.75;;;2.53;;
4921;SDS011;16625;53.624;10.106;2022-08-03T12:46:37;3.55;;;2.10;;
4921;SDS011;16625;53.624;10.106;2022-08-03T12:49:05;6.05;;;2.33;;
4921;SDS011;16625;53.624;10.106;2022-08-03T12:51:36;3.88;;;2.22;;
4921;SDS011;16625;53.624;10.106;2022-08-03T12:54:20;3.30;;;2.05;;
4921;SDS011;16625;53.624;10.106;2022-08-03T12:56:55;7.22;;;2.42;;
4921;SDS011;16625;53.624;10.106;2022-08-03T12:59:23;3.78;;;2.10;;
4921;SDS011;16625;53.624;10.106;2022-08-03T13:01:51;7.18;;;2.90;;
4921;SDS011;16625;53.624;10.106;2022-08-03T13:04:24;5.63;;;2.25;;
4921;SDS011;16625;53.624;10.106;2022-08-03T13:07:00;6.80;;;2.10;;
4921;SDS011;16625;53.624;10.106;2022-08-03T13:09:28;4.13;;;2.15;;
4921;SDS011;16625;53.624;10.106;2022-08-03T13:12:06;11.75;;;2.97;;
4921;SDS011;16625;53.624;10.106;2022-08-03T13:14:37;9.18;;;2.25;;
4921;SDS011;16625;53.624;10.106;2022-08-03T13:17:05;10.15;;;3.47;;
4921;SDS011;16625;53.624;10.106;2022-08-03T13:19:32;5.68;;;2.38;;
4921;SDS011;16625;53.624;10.106;2022-08-03T13:22:06;7.38;;;2.45;;
4921;SDS011;16625;53.624;10.106;2022-08-03T13:24:39;7.25;;;2.45;;
4921;SDS011;16625;53.624;10.106;2022-08-03T13:27:07;5.45;;;2.50;;
4921;SDS011;16625;53.624;10.106;2022-08-03T13:29:34;5.35;;;2.45;;
4921;SDS011;16625;53.624;10.106;2022-08-03T13:32:02;7.30;;;2.47;;
4921;SDS011;16625;53.624;10.106;2022-08-03T13:34:29;5.78;;;2.75;;
4921;SDS011;16625;53.624;10.106;2022-08-03T13:36:56;6.35;;;2.05;;
4921;SDS011;16625;53.624;10.106;2022-08-03T13:39:25;15.30;;;2.35;;
4921;SDS011;16625;53.624;10.106;2022-08-03T13:41:52;6.50;;;2.80;;
4921;SDS011;16625;53.624;10.106;2022-08-03T13:44:19;9.00;;;2.33;;
4921;SDS011;16625;53.624;10.106;2022-08-03T13:46:47;3.90;;;2.20;;
4921;SDS011;16625;53.624;10.106;2022-08-03T13:49:14;8.13;;;2.60;;
4921;SDS011;16625;53.624;10.106;2022-08-03T13:51:41;7.90;;;2.35;;
4921;SDS011;16625;53.624;10.106;2022-08-03T13:54:07;9.65;;;2.67;;
4921;SDS011;16625;53.624;10.106;2022-08-03T13:56:36;6.03;;;3.38;;
4921;SDS011;16625;53.624;10.106;2022-08-03T13:59:03;7.70;;;2.33;;
4921;SDS011;16625;53.624;10.106;2022-08-03T14:01:30;4.07;;;2.25;;
4921;SDS011;16625;53.624;10.106;2022-08-03T14:07:19;6.75;;;2.50;;
4921;SDS011;16625;53.624;10.106;2022-08-03T14:09:47;8.63;;;2.22;;
4921;SDS011;16625;53.624;10.106;2022-08-03T14:12:16;7.10;;;2.40;;
4921;SDS011;16625;53.624;10.106;2022-08-03T14:14:43;12.35;;;2.80;;
4921;SDS011;16625;53.624;10.106;2022-08-03T14:17:10;8.32;;;2.28;;
4921;SDS011;16625;53.624;10.106;2022-08-03T14:19:37;6.72;;;2.22;;
4921;SDS011;16625;53.624;10.106;2022-08-03T14:22:04;10.73;;;2.92;;
4921;SDS011;16625;53.624;10.106;2022-08-03T14:24:31;8.93;;;2.60;;
4921;SDS011;16625;53.624;10.106;2022-08-03T14:26:58;7.57;;;2.60;;
4921;SDS011;16625;53.624;10.106;2022-08-03T14:29:27;6.65;;;2.13;;
4921;SDS011;16625;53.624;10.106;2022-08-03T14:31:54;3.97;;;2.40;;
4921;SDS011;16625;53.624;10.106;2022-08-03T14:34:21;7.65;;;2.92;;
4921;SDS011;16625;53.624;10.106;2022-08-03T14:36:48;3.17;;;2.42;;
4921;SDS011;16625;53.624;10.106;2022-08-03T14:39:15;8.82;;;2.63;;
4921;SDS011;16625;53.624;10.106;2022-08-03T14:41:42;5.28;;;2.78;;
4921;SDS011;16625;53.624;10.106;2022-08-03T14:44:09;4.90;;;2.20;;
4921;SDS011;16625;53.624;10.106;2022-08-03T14:46:37;6.55;;;2.83;;
4921;SDS011;16625;53.624;10.106;2022-08-03T14:49:04;5.45;;;2.58;;
4921;SDS011;16625;53.624;10.106;2022-08-03T14:51:31;5.40;;;3.05;;
4921;SDS011;16625;53.624;10.106;2022-08-03T14:53:58;5.78;;;2.55;;
4921;SDS011;16625;53.624;10.106;2022-08-03T14:56:25;6.82;;;2.47;;
4921;SDS011;16625;53.624;10.106;2022-08-03T14:58:52;11.95;;;2.38;;
4921;SDS011;16625;53.624;10.106;2022-08-03T15:01:19;9.07;;;2.78;;
4921;SDS011;16625;53.624;10.106;2022-08-03T15:03:47;9.60;;;2.70;;
4921;SDS011;16625;53.624;10.106;2022-08-03T15:06:14;17.90;;;2.85;;
4921;SDS011;16625;53.624;10.106;2022-08-03T15:08:41;7.45;;;2.65;;
4921;SDS011;16625;53.624;10.106;2022-08-03T15:14:21;6.72;;;2.50;;
4921;SDS011;16625;53.624;10.106;2022-08-03T15:16:48;5.78;;;2.42;;
4921;SDS011;16625;53.624;10.106;2022-08-03T15:19:17;5.20;;;2.50;;
4921;SDS011;16625;53.624;10.106;2022-08-03T15:21:44;7.10;;;2.88;;
4921;SDS011;16625;53.624;10.106;2022-08-03T15:24:11;18.75;;;3.00;;
4921;SDS011;16625;53.624;10.106;2022-08-03T15:26:38;8.18;;;2.65;;
4921;SDS011;16625;53.624;10.106;2022-08-03T15:29:04;5.75;;;2.63;;
4921;SDS011;16625;53.624;10.106;2022-08-03T15:31:32;8.18;;;2.58;;
4921;SDS011;16625;53.624;10.106;2022-08-03T15:33:59;6.90;;;3.10;;
4921;SDS011;16625;53.624;10.106;2022-08-03T15:36:28;6.35;;;2.40;;
4921;SDS011;16625;53.624;10.106;2022-08-03T15:38:55;4.80;;;3.10;;
4921;SDS011;16625;53.624;10.106;2022-08-03T15:41:22;9.80;;;3.10;;
4921;SDS011;16625;53.624;10.106;2022-08-03T15:43:49;13.07;;;2.85;;
4921;SDS011;16625;53.624;10.106;2022-08-03T15:46:17;7.07;;;2.15;;
4921;SDS011;16625;53.624;10.106;2022-08-03T15:48:44;5.18;;;2.63;;
4921;SDS011;16625;53.624;10.106;2022-08-03T15:51:11;5.85;;;2.88;;
4921;SDS011;16625;53.624;10.106;2022-08-03T15:53:40;7.13;;;2.58;;
4921;SDS011;16625;53.624;10.106;2022-08-03T15:56:07;11.55;;;3.33;;
4921;SDS011;16625;53.624;10.106;2022-08-03T15:58:34;9.10;;;3.00;;
4921;SDS011;16625;53.624;10.106;2022-08-03T16:01:01;8.52;;;2.63;;
4921;SDS011;16625;53.624;10.106;2022-08-03T16:03:29;7.45;;;3.08;;
4921;SDS011;16625;53.624;10.106;2022-08-03T16:05:58;8.50;;;2.08;;
4921;SDS011;16625;53.624;10.106;2022-08-03T16:08:26;14.27;;;3.13;;
4921;SDS011;16625;53.624;10.106;2022-08-03T16:10:54;5.13;;;2.20;;
4921;SDS011;16625;53.624;10.106;2022-08-03T16:13:21;4.80;;;2.40;;
4921;SDS011;16625;53.624;10.106;2022-08-03T16:15:48;7.97;;;2.88;;
4921;SDS011;16625;53.624;10.106;2022-08-03T16:18:16;7.38;;;2.50;;
4921;SDS011;16625;53.624;10.106;2022-08-03T16:20:44;3.60;;;2.28;;
4921;SDS011;16625;53.624;10.106;2022-08-03T16:23:13;4.88;;;2.55;;
4921;SDS011;16625;53.624;10.106;2022-08-03T16:25:42;10.93;;;2.63;;
4921;SDS011;16625;53.624;10.106;2022-08-03T16:28:11;7.75;;;2.55;;
4921;SDS011;16625;53.624;10.106;2022-08-03T16:30:39;12.13;;;2.78;;
4921;SDS011;16625;53.624;10.106;2022-08-03T16:33:06;7.28;;;2.58;;
4921;SDS011;16625;53.624;10.106;2022-08-03T16:35:36;6.22;;;2.30;;
4921;SDS011;16625;53.624;10.106;2022-08-03T16:38:04;7.47;;;2.47;;
4921;SDS011;16625;53.624;10.106;2022-08-03T16:40:31;12.75;;;3.20;;
4921;SDS011;16625;53.624;10.106;2022-08-03T16:42:59;3.90;;;2.58;;
4921;SDS011;16625;53.624;10.106;2022-08-03T16:45:28;6.25;;;2.60;;
4921;SDS011;16625;53.624;10.106;2022-08-03T16:47:55;8.07;;;3.38;;
4921;SDS011;16625;53.624;10.106;2022-08-03T16:50:21;5.68;;;2.97;;
4921;SDS011;16625;53.624;10.106;2022-08-03T16:52:48;7.65;;;3.55;;
4921;SDS011;16625;53.624;10.106;2022-08-03T16:55:15;10.40;;;2.75;;
4921;SDS011;16625;53.624;10.106;2022-08-03T16:57:42;6.28;;;2.55;;
4921;SDS011;16625;53.624;10.106;2022-08-03T17:00:10;13.88;;;3.08;;
4921;SDS011;16625;53.624;10.106;2022-08-03T17:02:40;6.32;;;2.50;;
4921;SDS011;16625;53.624;10.106;2022-08-03T17:05:08;7.13;;;2.72;;
4921;SDS011;16625;53.624;10.106;2022-08-03T17:07:35;8.10;;;2.30;;
4921;SDS011;16625;53.624;10.106;2022-08-03T17:10:04;6.97;;;2.28;;
4921;SDS011;16625;53.624;10.106;2022-08-03T17:12:33;4.40;;;2.47;;
4921;SDS011;16625;53.624;10.106;2022-08-03T17:14:59;4.18;;;2.13;;
4921;SDS011;16625;53.624;10.106;2022-08-03T17:17:28;6.05;;;2.25;;
4921;SDS011;16625;53.624;10.106;2022-08-03T17:19:59;4.45;;;2.58;;
4921;SDS011;16625;53.624;10.106;2022-08-03T17:22:27;8.98;;;2.45;;
4921;SDS011;16625;53.624;10.106;2022-08-03T17:24:57;7.80;;;2.70;;
4921;SDS011;16625;53.624;10.106;2022-08-03T17:27:30;6.15;;;2.30;;
4921;SDS011;16625;53.624;10.106;2022-08-03T17:29:58;7.20;;;2.33;;
4921;SDS011;16625;53.624;10.106;2022-08-03T17:32:29;6.25;;;2.53;;
4921;SDS011;16625;53.624;10.106;2022-08-03T17:35:00;4.15;;;2.15;;
4921;SDS011;16625;53.624;10.106;2022-08-03T17:37:27;6.30;;;2.35;;
4921;SDS011;16625;53.624;10.106;2022-08-03T17:39:54;7.80;;;2.35;;
4921;SDS011;16625;53.624;10.106;2022-08-03T17:42:21;3.65;;;2.15;;
4921;SDS011;16625;53.624;10.106;2022-08-03T17:44:49;9.85;;;2.22;;
4921;SDS011;16625;53.624;10.106;2022-08-03T17:47:16;11.48;;;2.75;;
4921;SDS011;16625;53.624;10.106;2022-08-03T17:49:44;7.47;;;2.80;;
4921;SDS011;16625;53.624;10.106;2022-08-03T17:52:14;10.00;;;2.40;;
4921;SDS011;16625;53.624;10.106;2022-08-03T17:54:53;4.97;;;2.58;;
4921;SDS011;16625;53.624;10.106;2022-08-03T17:57:28;6.55;;;2.40;;
4921;SDS011;16625;53.624;10.106;2022-08-03T18:00:00;6.47;;;2.80;;
4921;SDS011;16625;53.624;10.106;2022-08-03T18:02:53;6.50;;;2.10;;
4921;SDS011;16625;53.624;10.106;2022-08-03T18:05:42;11.02;;;3.20;;
4921;SDS011;16625;53.624;10.106;2022-08-03T18:08:14;9.95;;;2.45;;
4921;SDS011;16625;53.624;10.106;2022-08-03T18:10:43;6.72;;;2.40;;
4921;SDS011;16625;53.624;10.106;2022-08-03T18:13:13;5.65;;;2.45;;
4921;SDS011;16625;53.624;10.106;2022-08-03T18:15:51;10.52;;;2.80;;
4921;SDS011;16625;53.624;10.106;2022-08-03T18:18:24;6.15;;;2.47;;
4921;SDS011;16625;53.624;10.106;2022-08-03T18:20:57;9.63;;;2.85;;
4921;SDS011;16625;53.624;10.106;2022-08-03T18:23:29;4.93;;;2.13;;
4921;SDS011;16625;53.624;10.106;2022-08-03T18:25:56;9.45;;;3.30;;
4921;SDS011;16625;53.624;10.106;2022-08-03T18:28:24;6.25;;;2.83;;
4921;SDS011;16625;53.624;10.106;2022-08-03T18:30:52;6.07;;;2.58;;
4921;SDS011;16625;53.624;10.106;2022-08-03T18:33:20;5.45;;;2.20;;
4921;SDS011;16625;53.624;10.106;2022-08-03T18:35:48;9.73;;;3.25;;
4921;SDS011;16625;53.624;10.106;2022-08-03T18:38:16;8.63;;;2.45;;
4921;SDS011;16625;53.624;10.106;2022-08-03T18:40:44;5.95;;;2.47;;
4921;SDS011;16625;53.624;10.106;2022-08-03T18:43:11;6.57;;;2.47;;
